Home > Products > Valid Products > MTR

000
SAUS46 KMTR 011156
MTRMHS
METAR KMHS 011156Z AUTO 05003KT 10SM CLR 16/10 A3005 RMK AO2 SLP152
T01560100 10256 20156 58004





000
SAUS46 KMTR 011156
MTRMHS
METAR KMHS 011156Z AUTO 05003KT 10SM CLR 16/10 A3005 RMK AO2 SLP152
T01560100 10256 20156 58004





000
SAUS46 KMTR 011056
MTRMHS
METAR KMHS 011056Z AUTO 06004KT 10SM CLR 17/10 A3005 RMK AO2 SLP152
T01720100





000
SAUS46 KMTR 010957
MTRMHS
METAR KMHS 010956Z AUTO 00000KT 10SM CLR 18/10 A3006 RMK AO2 SLP154
T01780100





000
SAUS46 KMTR 010957
MTRMHS
METAR KMHS 010956Z AUTO 00000KT 10SM CLR 18/10 A3006 RMK AO2 SLP154
T01780100





000
SAUS46 KMTR 010857
MTRMHS
METAR KMHS 010856Z AUTO 04003KT 10SM CLR 19/11 A3006 RMK AO2 SLP154
T01890106 58000





000
SAUS46 KMTR 010756
MTRMHS
METAR KMHS 010756Z AUTO 00000KT 10SM CLR 21/12 A3007 RMK AO2 SLP156
T02060117 403720133





000
SAUS46 KMTR 010657
MTRMHS
METAR KMHS 010656Z AUTO VRB03KT 10SM CLR 24/11 A3006 RMK AO2 SLP154
T02390106





000
SAUS46 KMTR 010657
MTRMHS
METAR KMHS 010656Z AUTO VRB03KT 10SM CLR 24/11 A3006 RMK AO2 SLP154
T02390106





000
SAUS46 KMTR 010558
MTRMHS
METAR KMHS 010556Z AUTO 07003KT 10SM CLR 26/11 A3006 RMK AO2 SLP154
T02560106 10350 20250 53020





000
SAUS46 KMTR 010558
MTRMHS
METAR KMHS 010556Z AUTO 07003KT 10SM CLR 26/11 A3006 RMK AO2 SLP154
T02560106 10350 20250 53020





000
SAUS46 KMTR 010358
MTRMHS
METAR KMHS 010356Z AUTO VRB03KT 10SM CLR 28/12 A3002 RMK AO2 SLP140
T02780117





000
SAUS46 KMTR 010257
MTRMHS
METAR KMHS 010256Z AUTO 00000KT 10SM CLR 28/13 A3000 RMK AO2 SLP136
T02780133 55001





000
SAUS46 KMTR 010257
MTRMHS
METAR KMHS 010256Z AUTO 00000KT 10SM CLR 28/13 A3000 RMK AO2 SLP136
T02780133 55001





000
SAUS46 KMTR 010156
MTRMHS
METAR KMHS 010156Z AUTO 00000KT 10SM CLR 32/09 A2999 RMK AO2 SLP133
T03220094





000
SAUS46 KMTR 010057
MTRMHS
METAR KMHS 010056Z AUTO 00000KT 10SM CLR 34/04 A2999 RMK AO2 SLP134
T03440044





000
SAUS46 KMTR 010057
MTRMHS
METAR KMHS 010056Z AUTO 00000KT 10SM CLR 34/04 A2999 RMK AO2 SLP134
T03440044





000
SAUS46 KMTR 302356
MTRMHS
METAR KMHS 302356Z AUTO 00000KT 10SM CLR 35/04 A3000 RMK AO2 SLP137
T03500039 10372 20300 58015





000
SAUS46 KMTR 302356
MTRMHS
METAR KMHS 302356Z AUTO 00000KT 10SM CLR 35/04 A3000 RMK AO2 SLP137
T03500039 10372 20300 58015





000
SAUS46 KMTR 302156
MTRMHS
METAR KMHS 302156Z AUTO 00000KT 10SM CLR 36/04 A3004 RMK AO2 SLP146
T03610044





000
SAUS46 KMTR 301957
MTRMHS
METAR KMHS 301956Z AUTO 00000KT 10SM CLR 34/13 A3007 RMK AO2 SLP156
T03390128





000
SAUS46 KMTR 301856
MTRMHS
METAR KMHS 301856Z AUTO 00000KT 10SM CLR 32/12 A3009 RMK AO2 SLP167
T03170122





000
SAUS46 KMTR 301557
MTRMHS
METAR KMHS 301556Z AUTO VRB04KT 10SM CLR 26/14 A3012 RMK AO2 SLP180
T02610139





000
SAUS46 KMTR 301457
MTRMHS
METAR KMHS 301456Z AUTO 00000KT 10SM CLR 22/11 A3013 RMK AO2 SLP179
T02170111 50003





000
SAUS46 KMTR 301358
MTRMHS
METAR KMHS 301356Z AUTO 05003KT 10SM CLR 16/08 A3013 RMK AO2 SLP186
T01610083





000
SAUS46 KMTR 301358
MTRMHS
METAR KMHS 301356Z AUTO 05003KT 10SM CLR 16/08 A3013 RMK AO2 SLP186
T01610083





000
SAUS46 KMTR 301256
MTRMHS
METAR KMHS 301256Z AUTO 07003KT 10SM CLR 14/08 A3012 RMK AO2 SLP182
T01440078





000
SAUS46 KMTR 301256
MTRMHS
METAR KMHS 301256Z AUTO 07003KT 10SM CLR 14/08 A3012 RMK AO2 SLP182
T01440078





000
SAUS46 KMTR 301157
MTRMHS
METAR KMHS 301156Z AUTO 06003KT 10SM CLR 14/08 A3012 RMK AO2 SLP180
T01440078 10222 20144 58001





000
SAUS46 KMTR 301157
MTRMHS
METAR KMHS 301156Z AUTO 06003KT 10SM CLR 14/08 A3012 RMK AO2 SLP180
T01440078 10222 20144 58001





000
SAUS46 KMTR 301057
MTRMHS
METAR KMHS 301056Z AUTO 06003KT 10SM CLR 16/09 A3012 RMK AO2 SLP179
T01610089





000
SAUS46 KMTR 300956
MTRMHS
METAR KMHS 300956Z AUTO 06003KT 10SM CLR 17/11 A3012 RMK AO2 SLP179
T01670106





000
SAUS46 KMTR 300856
MTRMHS
METAR KMHS 300856Z AUTO 00000KT 10SM CLR 18/12 A3012 RMK AO2 SLP177
T01830117 50002





000
SAUS46 KMTR 300856
MTRMHS
METAR KMHS 300856Z AUTO 00000KT 10SM CLR 18/12 A3012 RMK AO2 SLP177
T01830117 50002





000
SAUS46 KMTR 300757
MTRMHS
METAR KMHS 300756Z AUTO VRB04KT 10SM CLR 22/11 A3012 RMK AO2 SLP175
T02220111 403440111





000
SAUS46 KMTR 300757
MTRMHS
METAR KMHS 300756Z AUTO VRB04KT 10SM CLR 22/11 A3012 RMK AO2 SLP175
T02220111 403440111





000
SAUS46 KMTR 300656
MTRMHS
METAR KMHS 300656Z AUTO 00000KT 10SM CLR 19/09 A3011 RMK AO2 SLP176
T01940094





000
SAUS46 KMTR 300558
MTRMHS
METAR KMHS 300556Z AUTO 05003KT 10SM CLR 19/07 A3011 RMK AO2 SLP177
T01940072 10328 20194 51019





000
SAUS46 KMTR 300558
MTRMHS
METAR KMHS 300556Z AUTO 05003KT 10SM CLR 19/07 A3011 RMK AO2 SLP177
T01940072 10328 20194 51019





000
SAUS46 KMTR 300456
MTRMHS
METAR KMHS 300456Z AUTO 00000KT 10SM CLR 20/08 A3010 RMK AO2 SLP173
T02000078





000
SAUS46 KMTR 300456
MTRMHS
METAR KMHS 300456Z AUTO 00000KT 10SM CLR 20/08 A3010 RMK AO2 SLP173
T02000078





000
SAUS46 KMTR 300256
MTRMHS
METAR KMHS 300256Z AUTO 00000KT 10SM CLR 29/03 A3005 RMK AO2 SLP154
T02890033 55003





000
SAUS46 KMTR 300256
MTRMHS
METAR KMHS 300256Z AUTO 00000KT 10SM CLR 29/03 A3005 RMK AO2 SLP154
T02890033 55003





000
SAUS46 KMTR 300157
MTRMHS
METAR KMHS 300156Z AUTO 00000KT 10SM CLR 31/02 A3004 RMK AO2 SLP154
T03060017





000
SAUS46 KMTR 300157
MTRMHS
METAR KMHS 300156Z AUTO 00000KT 10SM CLR 31/02 A3004 RMK AO2 SLP154
T03060017





000
SAUS46 KMTR 300056
MTRMHS
METAR KMHS 300056Z AUTO 00000KT 10SM CLR 32/01 A3005 RMK AO2 SLP158
T03170006





000
SAUS46 KMTR 292357
MTRMHS
METAR KMHS 292356Z AUTO 00000KT 10SM CLR 32/00 A3006 RMK AO2 SLP162
T03220000 10344 20289 56012





000
SAUS46 KMTR 292357
MTRMHS
METAR KMHS 292356Z AUTO 00000KT 10SM CLR 32/00 A3006 RMK AO2 SLP162
T03220000 10344 20289 56012





000
SAUS46 KMTR 292257
MTRMHS
METAR KMHS 292256Z AUTO 00000KT 10SM CLR 34/00 A3007 RMK AO2 SLP165
T03390000





000
SAUS46 KMTR 292156
MTRMHS
METAR KMHS 292156Z AUTO VRB03KT 10SM CLR 33/03 A3008 RMK AO2 SLP168
T03330028





000
SAUS46 KMTR 292156
MTRMHS
METAR KMHS 292156Z AUTO VRB03KT 10SM CLR 33/03 A3008 RMK AO2 SLP168
T03330028





000
SAUS46 KMTR 292058
MTRMHS
METAR KMHS 292056Z AUTO VRB03KT 10SM CLR 32/04 A3010 RMK AO2 SLP174
T03220039 58006





000
SAUS46 KMTR 292058
MTRMHS
METAR KMHS 292056Z AUTO VRB03KT 10SM CLR 32/04 A3010 RMK AO2 SLP174
T03220039 58006





000
SAUS46 KMTR 291957
MTRMHS
METAR KMHS 291956Z AUTO 00000KT 10SM CLR 32/07 A3011 RMK AO2 SLP178
T03170067





000
SAUS46 KMTR 291856
MTRMHS
METAR KMHS 291856Z AUTO 00000KT 10SM CLR 30/08 A3012 RMK AO2 SLP181
T03000078





000
SAUS46 KMTR 291756
MTRMHS
METAR KMHS 291756Z AUTO 00000KT 10SM CLR 29/07 A3012 RMK AO2 SLP182
T02890067 10289 20117 55000





000
SAUS46 KMTR 291756
MTRMHS
METAR KMHS 291756Z AUTO 00000KT 10SM CLR 29/07 A3012 RMK AO2 SLP182
T02890067 10289 20117 55000





000
SAUS46 KMTR 291656
MTRMHS
METAR KMHS 291656Z AUTO 00000KT 10SM CLR 27/07 A3012 RMK AO2 SLP180
T02720067





000
SAUS46 KMTR 291557
MTRMHS
METAR KMHS 291556Z AUTO 00000KT 10SM CLR 24/11 A3011 RMK AO2 SLP180
T02390111





000
SAUS46 KMTR 291459
MTRMHS
METAR KMHS 291456Z AUTO 00000KT 10SM CLR 21/10 A3012 RMK AO2 SLP180
T02060100 55000





000
SAUS46 KMTR 291357
MTRMHS
METAR KMHS 291356Z AUTO 00000KT 10SM CLR 15/08 A3012 RMK AO2 SLP185
T01500078





000
SAUS46 KMTR 291357
MTRMHS
METAR KMHS 291356Z AUTO 00000KT 10SM CLR 15/08 A3012 RMK AO2 SLP185
T01500078





000
SAUS46 KMTR 291256
MTRMHS
METAR KMHS 291256Z AUTO 07003KT 10SM CLR 13/07 A3012 RMK AO2 SLP185
T01280067





000
SAUS46 KMTR 291256
MTRMHS
METAR KMHS 291256Z AUTO 07003KT 10SM CLR 13/07 A3012 RMK AO2 SLP185
T01280067





000
SAUS46 KMTR 291157
MTRMHS
METAR KMHS 291156Z AUTO 06003KT 10SM CLR 13/07 A3012 RMK AO2 SLP183
T01280067 10172 20111 53007





000
SAUS46 KMTR 291157
MTRMHS
METAR KMHS 291156Z AUTO 06003KT 10SM CLR 13/07 A3012 RMK AO2 SLP183
T01280067 10172 20111 53007





000
SAUS46 KMTR 290956
MTRMHS
METAR KMHS 290956Z AUTO 07004KT 10SM CLR 14/07 A3010 RMK AO2 SLP175
T01390072





000
SAUS46 KMTR 290857
MTRMHS
METAR KMHS 290856Z AUTO 00000KT 10SM CLR 14/07 A3010 RMK AO2 SLP177
T01440072 53002





000
SAUS46 KMTR 290857
MTRMHS
METAR KMHS 290856Z AUTO 00000KT 10SM CLR 14/07 A3010 RMK AO2 SLP177
T01440072 53002





000
SAUS46 KMTR 290757
MTRMHS
METAR KMHS 290756Z AUTO 00000KT 10SM CLR 14/08 A3008 RMK AO2 SLP172
T01440078 403280144





000
SAUS46 KMTR 290656
MTRMHS
METAR KMHS 290656Z AUTO 00000KT 10SM CLR 17/08 A3008 RMK AO2 SLP176
T01670078





000
SAUS46 KMTR 290557
MTRMHS
METAR KMHS 290556Z AUTO 00000KT 10SM CLR 17/09 A3009 RMK AO2 SLP177
T01670089 10311 20167 53015





000
SAUS46 KMTR 290557
MTRMHS
METAR KMHS 290556Z AUTO 00000KT 10SM CLR 17/09 A3009 RMK AO2 SLP177
T01670089 10311 20167 53015





000
SAUS46 KMTR 290457
MTRMHS
METAR KMHS 290456Z AUTO 00000KT 10SM CLR 19/09 A3007 RMK AO2 SLP168
T01890089





000
SAUS46 KMTR 290356
MTRMHS
METAR KMHS 290356Z AUTO 00000KT 10SM CLR 22/08 A3005 RMK AO2 SLP159
T02220083





000
SAUS46 KMTR 290256
MTRMHS
METAR KMHS 290256Z AUTO 00000KT 10SM CLR 27/08 A3004 RMK AO2 SLP153
T02670083 55004





000
SAUS46 KMTR 290158
MTRMHS
METAR KMHS 290156Z AUTO 00000KT 10SM CLR 28/07 A3004 RMK AO2 SLP152
T02830072





000
SAUS46 KMTR 290158
MTRMHS
METAR KMHS 290156Z AUTO 00000KT 10SM CLR 28/07 A3004 RMK AO2 SLP152
T02830072





000
SAUS46 KMTR 290058
MTRMHS
METAR KMHS 290056Z AUTO 00000KT 10SM CLR 29/07 A3004 RMK AO2 SLP155
T02890067





000
SAUS46 KMTR 282357
MTRMHS
METAR KMHS 282356Z AUTO 00000KT 10SM CLR 31/08 A3005 RMK AO2 SLP154
T03110083 10328 20211 58009





000
SAUS46 KMTR 282357
MTRMHS
METAR KMHS 282356Z AUTO 00000KT 10SM CLR 31/08 A3005 RMK AO2 SLP154
T03110083 10328 20211 58009





000
SAUS46 KMTR 282257
MTRMHS
METAR KMHS 282256Z AUTO VRB04KT 10SM FEW110 32/08 A3007 RMK AO2
SLP158 T03170083





000
SAUS46 KMTR 282056
MTRMHS
METAR KMHS 282056Z AUTO 00000KT 10SM FEW120 28/12 A3008 RMK AO2
SLP168 T02780122 58006





000
SAUS46 KMTR 282056
MTRMHS
METAR KMHS 282056Z AUTO 00000KT 10SM FEW120 28/12 A3008 RMK AO2
SLP168 T02780122 58006





000
SAUS46 KMTR 281956
MTRMHS
METAR KMHS 281956Z AUTO VRB03KT 10SM FEW120 26/14 A3010 RMK AO2
SLP173 T02610139





000
SAUS46 KMTR 281956
MTRMHS
METAR KMHS 281956Z AUTO VRB03KT 10SM FEW120 26/14 A3010 RMK AO2
SLP173 T02610139





000
SAUS46 KMTR 281857
MTRMHS
METAR KMHS 281856Z AUTO 00000KT 10SM FEW080 SCT095 BKN120 22/15
A3010 RMK AO2 SLP175 T02170150





000
SAUS46 KMTR 281756
MTRMHS
METAR KMHS 281756Z AUTO 00000KT 10SM SCT120 23/12 A3010 RMK AO2
SLP175 T02330117 10239 20172 58000





000
SAUS46 KMTR 281756
MTRMHS
METAR KMHS 281756Z AUTO 00000KT 10SM SCT120 23/12 A3010 RMK AO2
SLP175 T02330117 10239 20172 58000





000
SAUS46 KMTR 281657
MTRMHS
METAR KMHS 281656Z AUTO 00000KT 10SM FEW046 SCT075 BKN110 24/12
A3012 RMK AO2 SLP178 T02390122





000
SAUS46 KMTR 281557
MTRMHS
METAR KMHS 281556Z AUTO 00000KT 10SM FEW075 FEW090 BKN120 22/13
A3012 RMK AO2 SLP180 T02170133





000
SAUS46 KMTR 281457
MTRMHS
METAR KMHS 281456Z AUTO 00000KT 10SM SCT120 21/12 A3010 RMK AO2
SLP176 T02060122 56001





000
SAUS46 KMTR 281356
MTRMHS
METAR KMHS 281356Z AUTO 00000KT 10SM SCT120 19/10 A3011 RMK AO2
SLP176 T01890100





000
SAUS46 KMTR 281356
MTRMHS
METAR KMHS 281356Z AUTO 00000KT 10SM SCT120 19/10 A3011 RMK AO2
SLP176 T01890100





000
SAUS46 KMTR 281256
MTRMHS
METAR KMHS 281256Z AUTO 00000KT 10SM FEW090 FEW120 17/09 A3009 RMK
AO2 SLP170 T01720094





    US Dept of Commerce
    National Oceanic and Atmospheric Administration
    National Weather Service
    1325 East West Highway
    Silver Spring, MD 20910
    Page Author: NWS Internet Services Team
Disclaimer
Information Quality
Credits
Glossary
Privacy Policy
Freedom of Information Act (FOIA)
About Us
Career Opportunities